createdAt,value
2022-09-04T00:02:22.176Z,99929.19
2022-09-04T00:05:00.394Z,99929.16
2022-09-04T00:07:30.909Z,99925.72
2022-09-04T00:10:11.694Z,99930.91
2022-09-04T00:12:45.915Z,99932.63
2022-09-04T00:15:19.354Z,99929.19
2022-09-04T00:17:52.360Z,99933.50
2022-09-04T00:20:30.396Z,99942.19
2022-09-04T00:23:03.857Z,99942.13
2022-09-04T00:25:35.585Z,99937.78
2022-09-04T00:28:09.999Z,99933.50
2022-09-04T00:30:50.205Z,99933.50
2022-09-04T00:33:26.133Z,99936.06
2022-09-04T00:35:59.543Z,99937.81
2022-09-04T00:38:36.488Z,99938.69
2022-09-04T00:41:12.204Z,99943.00
2022-09-04T00:43:59.736Z,99944.75
2022-09-04T00:47:09.324Z,99943.88
2022-09-04T00:50:01.191Z,99939.56
2022-09-04T00:52:53.809Z,99949.94
2022-09-04T00:55:44.771Z,99952.53
2022-09-04T00:58:25.087Z,99951.66
2022-09-04T01:00:58.189Z,99954.25
2022-09-04T01:03:48.459Z,99949.94
2022-09-04T01:06:36.372Z,99955.13
2022-09-04T01:09:27.453Z,99962.03
2022-09-04T01:12:07.642Z,99965.50
2022-09-04T01:14:41.295Z,99974.16
2022-09-04T01:17:19.021Z,99970.69
2022-09-04T01:19:59.824Z,99978.47
2022-09-04T01:22:52.904Z,99980.19
2022-09-04T01:25:33.584Z,99979.31
2022-09-04T01:28:06.723Z,99986.25
2022-09-04T01:30:44.193Z,99983.66
2022-09-04T01:33:20.335Z,99983.63
2022-09-04T01:35:55.221Z,99991.41
2022-09-04T01:38:32.429Z,99982.75
2022-09-04T01:41:07.220Z,99987.94
2022-09-04T01:43:36.115Z,99993.09
2022-09-04T01:46:31.235Z,100006.06
2022-09-04T01:49:07.367Z,100004.31
2022-09-04T01:51:40.873Z,100001.72
2022-09-04T01:54:13.736Z,100003.47
2022-09-04T01:56:49.165Z,100006.91
2022-09-04T01:59:27.008Z,100009.50
2022-09-04T02:01:59.878Z,100005.16
2022-09-04T02:04:35.772Z,100008.59
2022-09-04T02:07:17.340Z,100008.59
2022-09-04T02:09:54.886Z,99997.34
2022-09-04T02:12:35.821Z,100013.72
2022-09-04T02:15:13.701Z,100004.25
2022-09-04T02:17:48.800Z,100009.44
2022-09-04T02:20:24.763Z,99998.13
2022-09-04T02:23:03.539Z,100003.34
2022-09-04T02:25:37.103Z,100004.22
2022-09-04T02:28:15.378Z,100005.03
2022-09-04T02:30:54.566Z,99999.84
2022-09-04T02:33:30.264Z,100008.50
2022-09-04T02:36:03.680Z,100007.66
2022-09-04T02:38:37.245Z,100010.25
2022-09-04T02:41:14.581Z,100011.94
2022-09-04T02:44:02.863Z,100012.78
2022-09-04T02:46:43.392Z,100008.44
2022-09-04T02:49:19.980Z,100014.50
2022-09-04T02:52:01.788Z,100018.78
2022-09-04T02:55:04.853Z,100017.94
2022-09-04T02:57:42.652Z,100017.03
2022-09-04T03:00:15.459Z,100018.78
2022-09-04T03:02:54.101Z,100020.53
2022-09-04T03:05:25.875Z,100017.91
2022-09-04T03:08:01.251Z,100018.75
2022-09-04T03:10:32.700Z,100015.31
2022-09-04T03:13:06.291Z,100019.63
2022-09-04T03:15:40.637Z,100027.41
2022-09-04T03:18:19.845Z,100033.50
2022-09-04T03:20:53.912Z,100034.34
2022-09-04T03:23:24.834Z,100028.31
2022-09-04T03:26:15.778Z,100035.19
2022-09-04T03:28:56.215Z,100025.63
2022-09-04T03:31:41.577Z,100027.31
2022-09-04T03:34:35.314Z,100033.34
2022-09-04T03:37:13.267Z,100037.66
2022-09-04T03:39:53.499Z,100035.91
2022-09-04T03:42:31.351Z,100035.00
2022-09-04T03:45:08.595Z,100035.00
2022-09-04T03:47:48.042Z,100041.94
2022-09-04T03:50:29.215Z,100044.53
2022-09-04T03:53:07.388Z,100039.28
2022-09-04T03:56:12.678Z,100043.56
2022-09-04T03:58:49.990Z,100040.03
2022-09-04T04:01:29.323Z,100052.13
2022-09-04T04:04:18.281Z,100047.78
2022-09-04T04:06:54.687Z,100052.09
2022-09-04T04:09:55.632Z,100057.25
2022-09-04T04:12:42.603Z,100051.22
2022-09-04T04:15:33.491Z,100060.69
2022-09-04T04:18:19.644Z,100065.00
2022-09-04T04:20:57.672Z,100063.25
2022-09-04T04:23:52.075Z,100068.41
2022-09-04T04:26:26.381Z,100068.41
2022-09-04T04:29:09.104Z,100073.59
2022-09-04T04:32:10.816Z,100071.84
2022-09-04T04:34:55.637Z,100064.91
2022-09-04T04:37:38.752Z,100072.66
2022-09-04T04:40:16.298Z,100082.13
2022-09-04T04:42:53.274Z,100085.63
2022-09-04T04:45:46.563Z,100081.25
2022-09-04T04:48:24.849Z,100088.16
2022-09-04T04:51:05.061Z,100088.16
2022-09-04T04:53:37.075Z,100094.19
2022-09-04T04:56:14.119Z,100101.16
2022-09-04T04:58:59.246Z,100104.56
2022-09-04T05:01:35.207Z,100104.56
2022-09-04T05:04:12.129Z,100103.72
2022-09-04T05:06:47.099Z,100108.88
2022-09-04T05:09:22.898Z,100113.22
2022-09-04T05:11:57.878Z,100123.63
2022-09-04T05:14:42.381Z,100117.59
2022-09-04T05:17:27.970Z,100130.56
2022-09-04T05:20:21.902Z,100128.00
2022-09-04T05:22:58.956Z,100134.91
2022-09-04T05:25:37.825Z,100134.91
2022-09-04T05:28:18.609Z,100137.56
2022-09-04T05:30:52.054Z,100146.19
2022-09-04T05:33:26.018Z,100144.50
2022-09-04T05:36:00.154Z,100149.75
2022-09-04T05:38:34.922Z,100161.91
2022-09-04T05:41:07.866Z,100157.59
2022-09-04T05:43:53.429Z,100165.41
2022-09-04T05:46:39.401Z,100172.31
2022-09-04T05:49:21.697Z,100168.00
2022-09-04T05:52:16.144Z,100171.50
2022-09-04T05:55:16.502Z,100181.03
2022-09-04T05:58:01.851Z,100185.44
2022-09-04T06:00:42.681Z,100182.91
2022-09-04T06:03:39.588Z,100182.94
2022-09-04T06:06:21.491Z,100190.78
2022-09-04T06:09:23.949Z,100191.72
2022-09-04T06:12:05.961Z,100188.34
2022-09-04T06:14:54.295Z,100193.59
2022-09-04T06:17:36.067Z,100194.56
2022-09-04T06:20:21.706Z,100201.53
2022-09-04T06:23:09.769Z,100204.19
2022-09-04T06:26:21.884Z,100205.13
2022-09-04T06:29:11.976Z,100209.53
2022-09-04T06:32:07.830Z,100219.13
2022-09-04T06:34:58.796Z,100222.69
2022-09-04T06:37:36.063Z,100222.75
2022-09-04T06:40:23.772Z,100230.59
2022-09-04T06:43:04.713Z,100224.63
2022-09-04T06:45:44.741Z,100222.09
2022-09-04T06:48:25.780Z,100226.47
2022-09-04T06:51:08.061Z,100223.06
2022-09-04T06:53:42.502Z,100223.97
2022-09-04T06:56:30.388Z,100225.69
2022-09-04T06:59:31.264Z,100231.78
2022-09-04T07:02:17.194Z,100231.75
2022-09-04T07:04:57.177Z,100236.91
2022-09-04T07:07:35.555Z,100237.75
2022-09-04T07:10:10.546Z,100242.06
2022-09-04T07:13:38.476Z,100244.66
2022-09-04T07:16:31.011Z,100253.28
2022-09-04T07:19:13.587Z,100252.41
2022-09-04T07:21:52.076Z,100257.56
2022-09-04T07:27:18.849Z,100256.59
2022-09-04T07:29:51.329Z,100257.44
2022-09-04T07:32:25.891Z,100246.09
2022-09-04T07:34:59.947Z,100259.94
2022-09-04T07:37:36.383Z,100254.66
2022-09-04T07:40:11.373Z,100258.06
2022-09-04T07:42:48.186Z,100265.06
2022-09-04T07:45:29.951Z,100263.28
2022-09-04T07:48:09.325Z,100260.63
2022-09-04T07:50:42.370Z,100266.59
2022-09-04T07:53:28.996Z,100257.88
2022-09-04T07:56:02.327Z,100266.53
2022-09-04T07:58:45.572Z,100269.03
2022-09-04T08:01:37.008Z,100274.13
2022-09-04T08:04:38.018Z,100279.25
2022-09-04T08:07:11.459Z,100284.41
2022-09-04T08:10:04.838Z,100276.50
2022-09-04T08:12:56.220Z,100280.88
2022-09-04T08:15:40.990Z,100278.16
2022-09-04T08:18:37.736Z,100288.47
2022-09-04T08:21:18.357Z,100291.91
2022-09-04T08:24:17.725Z,100290.06
2022-09-04T08:26:56.457Z,100295.22
2022-09-04T08:29:40.911Z,100297.75
2022-09-04T08:32:32.474Z,100295.00
2022-09-04T08:35:18.301Z,100301.78
2022-09-04T08:38:03.253Z,100303.41
2022-09-04T08:41:00.665Z,100304.16
2022-09-04T08:43:44.344Z,100306.47
2022-09-04T08:46:49.385Z,100308.06
2022-09-04T08:49:45.039Z,100299.06
2022-09-04T08:52:41.263Z,100302.31
2022-09-04T08:55:46.108Z,100314.44
2022-09-04T08:58:47.882Z,100310.75
2022-09-04T09:01:56.360Z,100313.25
2022-09-04T09:04:47.264Z,100312.09
2022-09-04T09:08:05.937Z,100310.91
2022-09-04T09:11:02.135Z,100305.69
2022-09-04T09:14:01.753Z,100306.34
2022-09-04T09:16:43.737Z,100306.03
2022-09-04T09:19:20.727Z,100310.00
2022-09-04T09:22:08.145Z,100305.91
2022-09-04T09:25:16.489Z,100308.22
2022-09-04T09:28:25.033Z,100302.81
2022-09-04T09:31:43.974Z,100298.72
2022-09-04T09:34:48.968Z,100299.50
2022-09-04T09:37:48.157Z,100296.47
2022-09-04T09:40:43.186Z,100300.38
2022-09-04T09:43:35.956Z,100297.78
2022-09-04T09:46:33.400Z,100301.16
2022-09-04T09:49:30.067Z,100303.28
2022-09-04T09:52:29.669Z,100296.72
2022-09-04T09:55:33.023Z,100289.81
2022-09-04T09:58:24.823Z,100292.16
2022-09-04T10:01:08.496Z,100280.22
2022-09-04T10:04:06.712Z,100286.94
2022-09-04T10:07:00.213Z,100288.69
2022-09-04T10:10:14.981Z,100290.44
2022-09-04T10:13:26.173Z,100286.41
2022-09-04T10:16:20.721Z,100294.72
2022-09-04T10:19:16.376Z,100288.72
2022-09-04T10:22:10.376Z,100289.75
2022-09-04T10:25:31.011Z,100280.19
2022-09-04T10:28:26.436Z,100276.97
2022-09-04T10:31:29.996Z,100287.66
2022-09-04T10:34:13.452Z,100282.59
2022-09-04T10:36:46.979Z,100269.84
2022-09-04T10:39:42.704Z,100271.59
2022-09-04T10:42:25.327Z,100266.25
2022-09-04T10:45:08.019Z,100275.44
2022-09-04T10:47:58.729Z,100271.56
2022-09-04T10:50:46.325Z,100269.81
2022-09-04T10:53:40.454Z,100268.25
2022-09-04T10:56:22.021Z,100268.88
2022-09-04T10:59:10.671Z,100267.00
2022-09-04T11:02:13.816Z,100271.56
2022-09-04T11:05:06.988Z,100270.59
2022-09-04T11:07:58.928Z,100266.34
2022-09-04T11:10:47.493Z,100273.69
2022-09-04T11:13:41.097Z,100262.19
2022-09-04T11:16:26.578Z,100273.53
2022-09-04T11:19:28.749Z,100266.19
2022-09-04T11:22:21.380Z,100264.56
2022-09-04T11:25:22.998Z,100262.75
2022-09-04T11:28:20.433Z,100261.84
2022-09-04T11:31:05.853Z,100254.91
2022-09-04T11:34:32.988Z,100258.66
2022-09-04T11:37:40.245Z,100253.88
2022-09-04T11:40:50.501Z,100256.53
2022-09-04T11:43:44.340Z,100260.16
2022-09-04T11:46:32.859Z,100248.22
2022-09-04T11:49:34.438Z,100247.75
2022-09-04T11:52:08.276Z,100247.94
2022-09-04T11:55:09.847Z,100253.19
2022-09-04T11:57:53.443Z,100248.34
2022-09-04T12:00:21.480Z,100253.88
2022-09-04T12:03:12.180Z,100252.44
2022-09-04T12:06:00.259Z,100255.47
2022-09-04T12:08:48.330Z,100247.28
2022-09-04T12:12:02.035Z,100255.78
2022-09-04T12:15:07.485Z,100259.19
2022-09-04T12:18:02.719Z,100253.75
2022-09-04T12:20:50.536Z,100243.97
2022-09-04T12:23:32.304Z,100257.41
2022-09-04T12:26:51.966Z,100253.28
2022-09-04T12:29:45.787Z,100248.75
2022-09-04T12:32:50.355Z,100249.75
2022-09-04T12:35:54.436Z,100248.09
2022-09-04T12:39:00.363Z,100249.78
2022-09-04T12:41:35.764Z,100249.28
2022-09-04T12:44:15.349Z,100246.91
2022-09-04T12:46:56.886Z,100246.28
2022-09-04T12:49:44.859Z,100243.53
2022-09-04T12:52:20.679Z,100247.19
2022-09-04T12:55:01.258Z,100240.59
2022-09-04T12:57:42.504Z,100244.47
2022-09-04T13:00:14.981Z,100244.31
2022-09-04T13:02:57.188Z,100235.78
2022-09-04T13:05:53.050Z,100244.06
2022-09-04T13:08:35.722Z,100245.66
2022-09-04T13:11:19.579Z,100242.75
2022-09-04T13:13:56.666Z,100256.06
2022-09-04T13:16:34.095Z,100240.88
2022-09-04T13:19:15.348Z,100244.25
2022-09-04T13:21:57.399Z,100247.56
2022-09-04T13:24:39.958Z,100255.16
2022-09-04T13:27:26.280Z,100239.59
2022-09-04T13:30:06.663Z,100247.53
2022-09-04T13:32:53.176Z,100244.63
2022-09-04T13:35:38.583Z,100240.88
2022-09-04T13:38:44.569Z,100243.31
2022-09-04T13:41:36.253Z,100247.63
2022-09-04T13:44:19.782Z,100240.34
2022-09-04T13:46:51.939Z,100231.34
2022-09-04T13:49:24.743Z,100218.31
2022-09-04T13:51:59.385Z,100227.94
2022-09-04T13:54:31.347Z,100223.00
2022-09-04T13:57:07.630Z,100221.00
2022-09-04T13:59:36.130Z,100222.84
2022-09-04T14:02:08.228Z,100225.41
2022-09-04T14:04:43.865Z,100217.09
2022-09-04T14:07:19.424Z,100218.38
2022-09-04T14:09:50.399Z,100220.94
2022-09-04T14:12:36.559Z,100215.19
2022-09-04T14:15:31.079Z,100219.19
2022-09-04T14:18:13.958Z,100210.41
2022-09-04T14:20:52.367Z,100212.09
2022-09-04T14:23:32.900Z,100213.94
2022-09-04T14:26:12.452Z,100215.06
2022-09-04T14:28:50.670Z,100211.13
2022-09-04T14:31:28.289Z,100219.41
2022-09-04T14:34:13.719Z,100222.03
2022-09-04T14:36:56.408Z,100217.22
2022-09-04T14:39:27.971Z,100217.91
2022-09-04T14:42:12.102Z,100222.66
2022-09-04T14:45:02.412Z,100218.81
2022-09-04T14:47:42.165Z,100211.38
2022-09-04T14:50:13.091Z,100211.44
2022-09-04T14:52:44.599Z,100213.81
2022-09-04T14:55:17.124Z,100218.22
2022-09-04T14:57:51.169Z,100211.44
2022-09-04T15:00:22.056Z,100213.63
2022-09-04T15:02:57.933Z,100212.97
2022-09-04T15:05:30.536Z,100211.06
2022-09-04T15:08:02.368Z,100216.34
2022-09-04T15:10:32.932Z,100215.91
2022-09-04T15:13:42.259Z,100216.41
2022-09-04T15:16:19.241Z,100211.81
2022-09-04T15:18:56.371Z,100208.38
2022-09-04T15:21:32.027Z,100214.78
2022-09-04T15:24:12.885Z,100206.94
2022-09-04T15:26:46.721Z,100196.56
2022-09-04T15:29:21.047Z,100199.97
2022-09-04T15:31:49.240Z,100203.16
2022-09-04T15:34:22.189Z,100204.28
2022-09-04T15:36:50.625Z,100200.56
2022-09-04T15:39:32.169Z,100196.44
2022-09-04T15:42:00.058Z,100198.94
2022-09-04T15:44:33.711Z,100190.53
2022-09-04T15:47:06.319Z,100198.44
2022-09-04T15:49:47.603Z,100194.47
2022-09-04T15:52:26.813Z,100201.91
2022-09-04T15:55:05.387Z,100200.72
2022-09-04T15:57:42.691Z,100195.56
2022-09-04T16:00:12.503Z,100197.81
2022-09-04T16:02:54.441Z,100191.84
2022-09-04T16:05:28.043Z,100196.69
2022-09-04T16:08:04.043Z,100192.84
2022-09-04T16:10:48.879Z,100194.50
2022-09-04T16:13:34.747Z,100185.28
2022-09-04T16:16:09.622Z,100196.94
2022-09-04T16:18:48.691Z,100195.94
2022-09-04T16:21:24.286Z,100190.06
2022-09-04T16:23:52.656Z,100196.50
2022-09-04T16:26:28.124Z,100189.66
2022-09-04T16:29:03.362Z,100186.53
2022-09-04T16:31:34.618Z,100185.75
2022-09-04T16:34:08.729Z,100182.75
2022-09-04T16:36:45.657Z,100181.94
2022-09-04T16:39:23.926Z,100177.31
2022-09-04T16:41:58.227Z,100176.00
2022-09-04T16:44:31.436Z,100169.28
2022-09-04T16:47:10.364Z,100178.13
2022-09-04T16:49:49.008Z,100168.63
2022-09-04T16:52:45.267Z,100175.97
2022-09-04T16:55:24.943Z,100170.41
2022-09-04T16:58:07.227Z,100172.22
2022-09-04T17:00:55.184Z,100165.41
2022-09-04T17:03:40.825Z,100164.59
2022-09-04T17:06:18.818Z,100163.00
2022-09-04T17:08:50.817Z,100165.59
2022-09-04T17:11:24.415Z,100165.00
2022-09-04T17:14:09.003Z,100157.78
2022-09-04T17:16:48.940Z,100157.81
2022-09-04T17:19:16.901Z,100158.88
2022-09-04T17:28:52.142Z,100163.88
2022-09-04T17:29:08.974Z,100170.03
2022-09-04T17:29:14.872Z,100159.81
2022-09-04T17:31:38.351Z,100165.81
2022-09-04T17:37:44.061Z,100168.78
2022-09-04T17:40:36.454Z,100161.91
2022-09-04T17:40:57.533Z,100165.56
2022-09-04T17:43:22.701Z,100171.16
2022-09-04T17:46:04.465Z,100172.63
2022-09-04T17:48:39.277Z,100171.06
2022-09-04T17:51:08.904Z,100176.22
2022-09-04T17:53:39.486Z,100183.56
2022-09-04T17:56:14.811Z,100191.56
2022-09-04T17:58:49.781Z,100191.84
2022-09-04T18:01:23.367Z,100193.47
2022-09-04T18:04:20.922Z,100198.94
2022-09-04T18:06:56.301Z,100206.25
2022-09-04T18:09:31.868Z,100205.25
2022-09-04T18:12:10.935Z,100202.69
2022-09-04T18:14:55.641Z,100208.59
2022-09-04T18:17:44.709Z,100217.34
2022-09-04T18:20:24.180Z,100216.63
2022-09-04T18:23:28.159Z,100227.81
2022-09-04T18:26:00.444Z,100228.28
2022-09-04T18:28:35.031Z,100234.25
2022-09-04T18:37:05.620Z,100240.06
2022-09-04T18:37:24.546Z,100243.69
2022-09-04T18:37:45.687Z,100249.63
2022-09-04T18:40:12.612Z,100244.84
2022-09-04T18:49:03.050Z,100250.75
2022-09-04T18:50:25.211Z,100256.50
2022-09-04T18:50:45.369Z,100251.88
2022-09-04T18:51:24.828Z,100256.78
2022-09-04T18:53:59.364Z,100265.03
2022-09-04T18:56:29.976Z,100272.25
2022-09-04T18:59:03.099Z,100275.22
2022-09-04T19:01:58.044Z,100271.09
2022-09-04T19:04:35.868Z,100267.81
2022-09-04T19:07:08.235Z,100268.06
2022-09-04T19:10:25.295Z,100264.00
2022-09-04T19:13:02.597Z,100272.09
2022-09-04T19:15:55.371Z,100277.50
2022-09-04T19:18:30.109Z,100285.59
2022-09-04T19:21:16.541Z,100285.66
2022-09-04T19:23:50.147Z,100282.44
2022-09-04T19:26:22.528Z,100285.22
2022-09-04T19:28:55.197Z,100287.97
2022-09-04T19:31:31.879Z,100280.28
2022-09-04T19:34:09.523Z,100285.59
2022-09-04T19:36:43.677Z,100279.59
2022-09-04T19:46:05.417Z,100280.59
2022-09-04T19:46:11.593Z,100275.50
2022-09-04T19:46:18.262Z,100284.34
2022-09-04T19:48:26.860Z,100285.31
2022-09-04T19:53:22.202Z,100277.53
2022-09-04T19:53:58.165Z,100280.31
2022-09-04T19:56:32.509Z,100282.19
2022-09-04T19:59:18.915Z,100283.06
2022-09-04T20:01:53.256Z,100288.34
2022-09-04T20:04:41.101Z,100279.69
2022-09-04T20:07:17.143Z,100275.34
2022-09-04T20:09:48.925Z,100278.00
2022-09-04T20:12:22.424Z,100276.34
2022-09-04T20:14:55.028Z,100282.53
2022-09-04T20:17:45.140Z,100284.34
2022-09-04T20:20:21.163Z,100276.63
2022-09-04T20:22:53.553Z,100273.28
2022-09-04T20:25:41.369Z,100271.63
2022-09-04T20:28:17.084Z,100277.84
2022-09-04T20:30:49.492Z,100280.50
2022-09-04T20:33:22.370Z,100284.06
2022-09-04T20:35:59.591Z,100286.72
2022-09-04T20:38:33.056Z,100278.88
2022-09-04T20:41:03.087Z,100276.31
2022-09-04T20:43:42.196Z,100274.59
2022-09-04T20:49:35.221Z,100275.50
2022-09-04T20:52:57.775Z,100277.25
2022-09-04T20:52:58.601Z,100283.34
2022-09-04T20:55:20.565Z,100285.13
2022-09-04T21:02:28.331Z,100280.81
2022-09-04T21:03:35.589Z,100288.69
2022-09-04T21:04:00.863Z,100289.50
2022-09-04T21:06:34.677Z,100293.00
2022-09-04T21:09:11.872Z,100296.50
2022-09-04T21:11:43.424Z,100301.78
2022-09-04T21:14:16.711Z,100296.59
2022-09-04T21:17:29.854Z,100291.41
2022-09-04T21:20:27.025Z,100306.22
2022-09-04T21:23:12.982Z,100297.56
2022-09-04T21:25:51.397Z,100297.59
2022-09-04T21:29:10.754Z,100297.59
2022-09-04T21:32:11.468Z,100291.50
2022-09-04T21:35:02.929Z,100301.09
2022-09-04T21:37:47.726Z,100309.81
2022-09-04T21:40:51.286Z,100308.09
2022-09-04T21:43:50.425Z,100308.09
2022-09-04T21:46:50.190Z,100320.25
2022-09-04T21:49:34.552Z,100324.59
2022-09-04T21:52:19.914Z,100321.16
2022-09-04T21:59:24.495Z,100327.25
2022-09-04T22:02:36.513Z,100332.47
2022-09-04T22:02:41.884Z,100330.72
2022-09-04T22:04:13.321Z,100327.25
2022-09-04T22:10:52.886Z,100324.66
2022-09-04T22:13:30.098Z,100322.06
2022-09-04T22:13:40.556Z,100326.41
2022-09-04T22:16:01.864Z,100323.81
2022-09-04T22:18:39.090Z,100330.78
2022-09-04T22:21:22.495Z,100322.06
2022-09-04T22:24:23.305Z,100323.81
2022-09-04T22:27:24.740Z,100328.13
2022-09-04T22:30:05.008Z,100328.16
2022-09-04T22:33:01.660Z,100322.94
2022-09-04T22:36:13.313Z,100329.88
2022-09-04T22:39:01.219Z,100326.41
2022-09-04T22:41:45.293Z,100331.63
2022-09-04T22:44:24.171Z,100331.59
2022-09-04T22:47:26.746Z,100331.63
2022-09-04T22:50:29.062Z,100336.84
2022-09-04T22:54:01.307Z,100346.38
2022-09-04T22:56:46.302Z,100348.97
2022-09-04T22:59:34.253Z,100343.75
2022-09-04T23:02:48.203Z,100350.72
2022-09-04T23:05:47.450Z,100348.94
2022-09-04T23:13:48.232Z,100341.97
2022-09-04T23:13:52.955Z,100348.91
2022-09-04T23:14:32.324Z,100354.09
2022-09-04T23:17:28.276Z,100347.16
2022-09-04T23:25:52.033Z,100354.09
2022-09-04T23:26:49.989Z,100345.41
2022-09-04T23:27:03.524Z,100352.31
2022-09-04T23:29:51.601Z,100349.72
2022-09-04T23:32:44.820Z,100357.50
2022-09-04T23:35:27.572Z,100357.53
2022-09-04T23:38:13.382Z,100352.28
2022-09-04T23:40:44.561Z,100343.63
2022-09-04T23:43:32.721Z,100335.81
2022-09-04T23:46:25.967Z,100340.16
2022-09-04T23:49:24.547Z,100338.41
2022-09-04T23:52:03.032Z,100339.28
2022-09-04T23:54:57.656Z,100345.31
2022-09-04T23:57:29.670Z,100340.97
